Time;durP1;ratioP1;P1;durP2;ratioP2;P2;SDS_P1;SDS_P2;PMS_P1;PMS_P2;Temp;Humidity;BMP_temperature;BMP_pressure;BME280_temperature;BME280_humidity;BME280_pressure;Samples;Min_cycle;Max_cycle;Signal;HPM_P1;HPM_P2
2021/01/04 00:00:19;;;;;;;5.30;4.80;;;;;;;;;;5031334;28;20025;-88
2021/01/04 00:02:57;;;;;;;5.33;4.27;;;;;;;;;;5013090;28;20536;-87
2021/01/04 00:05:29;;;;;;;6.40;4.32;;;;;;;;;;5012411;28;20033;-87
2021/01/04 00:08:15;;;;;;;5.65;4.68;;;;;;;;;;5030638;28;20021;-87
2021/01/04 00:10:56;;;;;;;5.07;4.57;;;;;;;;;;5031292;28;20018;-87
2021/01/04 00:13:40;;;;;;;6.72;4.70;;;;;;;;;;5030384;28;20041;-87
2021/01/04 00:16:25;;;;;;;6.57;5.15;;;;;;;;;;5031039;28;20029;-88
2021/01/04 00:19:03;;;;;;;6.78;4.63;;;;;;;;;;5012908;28;20033;-87
2021/01/04 00:21:52;;;;;;;4.45;4.05;;;;;;;;;;5031223;28;20059;-87
2021/01/04 00:24:27;;;;;;;4.97;3.72;;;;;;;;;;5029978;28;20029;-87
2021/01/04 00:27:02;;;;;;;4.80;3.90;;;;;;;;;;5013336;28;20025;-87
2021/01/04 00:29:28;;;;;;;5.05;4.55;;;;;;;;;;5013388;28;20378;-87
2021/01/04 00:31:57;;;;;;;5.60;4.22;;;;;;;;;;5030220;28;20092;-87
2021/01/04 00:34:26;;;;;;;4.68;3.83;;;;;;;;;;5012657;28;20516;-87
2021/01/04 00:37:21;;;;;;;5.75;3.88;;;;;;;;;;5012429;28;20516;-87
2021/01/04 00:39:55;;;;;;;3.53;2.95;;;;;;;;;;4940572;28;20809;-87
2021/01/04 00:42:24;;;;;;;3.22;3.03;;;;;;;;;;4993272;28;20028;-87
2021/01/04 00:44:50;;;;;;;4.00;3.00;;;;;;;;;;5010358;28;20018;-87
2021/01/04 00:47:28;;;;;;;5.78;4.10;;;;;;;;;;5011109;28;20030;-87
2021/01/04 00:50:00;;;;;;;5.30;3.35;;;;;;;;;;4993512;28;20448;-88
2021/01/04 00:52:33;;;;;;;4.78;3.65;;;;;;;;;;5010454;28;20030;-87
2021/01/04 00:55:15;;;;;;;4.38;3.63;;;;;;;;;;4992837;28;20057;-87
2021/01/04 00:57:56;;;;;;;5.35;4.03;;;;;;;;;;4993144;28;20393;-87
2021/01/04 01:00:22;;;;;;;4.38;3.40;;;;;;;;;;4993265;28;20061;-87
2021/01/04 01:02:56;;;;;;;5.30;4.00;;;;;;;;;;5010375;28;20053;-87
2021/01/04 01:05:41;;;;;;;4.78;3.72;;;;;;;;;;4991921;28;20157;-87
2021/01/04 01:08:07;;;;;;;5.07;3.90;;;;;;;;;;5010545;28;20049;-87
2021/01/04 01:10:35;;;;;;;3.70;3.17;;;;;;;;;;4993545;28;20026;-87
2021/01/04 01:13:19;;;;;;;4.57;3.83;;;;;;;;;;5010179;28;20022;-87
2021/01/04 01:15:53;;;;;;;4.80;4.07;;;;;;;;;;5010514;28;20497;-87
2021/01/04 01:18:37;;;;;;;5.60;3.35;;;;;;;;;;5010847;28;20030;-87
2021/01/04 01:21:06;;;;;;;4.68;3.25;;;;;;;;;;5010916;28;20026;-87
2021/01/04 01:23:32;;;;;;;4.22;3.83;;;;;;;;;;4992427;28;20033;-87
2021/01/04 01:25:58;;;;;;;4.70;3.72;;;;;;;;;;5011301;28;20061;-86
2021/01/04 01:28:43;;;;;;;2.63;2.42;;;;;;;;;;4997052;28;20068;-87
2021/01/04 01:31:28;;;;;;;4.85;3.85;;;;;;;;;;4996829;28;20448;-87
2021/01/04 01:34:12;;;;;;;2.95;2.70;;;;;;;;;;4996283;28;20037;-87
2021/01/04 01:36:50;;;;;;;5.20;3.85;;;;;;;;;;4995111;28;20026;-87
2021/01/04 01:39:16;;;;;;;3.40;2.97;;;;;;;;;;5014263;28;20412;-87
2021/01/04 01:42:01;;;;;;;3.38;2.50;;;;;;;;;;5033851;28;20109;-87
2021/01/04 01:44:38;;;;;;;4.05;3.25;;;;;;;;;;5033528;28;20108;-87
2021/01/04 01:47:07;;;;;;;3.00;2.30;;;;;;;;;;5016299;28;20116;-87
2021/01/04 01:49:44;;;;;;;4.10;3.20;;;;;;;;;;5016336;28;20025;-87
2021/01/04 01:52:18;;;;;;;3.20;2.90;;;;;;;;;;5034264;28;20033;-87
2021/01/04 01:54:56;;;;;;;3.97;2.80;;;;;;;;;;5015192;28;20080;-87
2021/01/04 01:57:29;;;;;;;3.45;2.78;;;;;;;;;;5033775;28;20156;-87
2021/01/04 02:00:08;;;;;;;1.92;1.80;;;;;;;;;;5015615;28;20132;-87
2021/01/04 02:02:54;;;;;;;3.45;2.55;;;;;;;;;;5033560;28;20045;-87
2021/01/04 02:05:39;;;;;;;4.38;2.75;;;;;;;;;;5014265;28;20021;-86
2021/01/04 02:08:20;;;;;;;3.50;2.45;;;;;;;;;;5033489;28;20052;-87
2021/01/04 02:10:49;;;;;;;3.83;2.30;;;;;;;;;;5015354;28;20481;-87
2021/01/04 02:13:34;;;;;;;2.95;2.15;;;;;;;;;;5015397;28;20029;-87
2021/01/04 02:16:08;;;;;;;2.47;1.98;;;;;;;;;;5033239;28;20108;-87
2021/01/04 02:18:34;;;;;;;;;;;;;;;;;;5033236;28;20087;-87
2021/01/04 02:21:18;;;;;;;2.58;1.83;;;;;;;;;;5015033;28;20348;-87
2021/01/04 02:24:14;;;;;;;3.70;2.92;;;;;;;;;;5032364;28;20076;-87
2021/01/04 02:26:41;;;;;;;3.05;2.33;;;;;;;;;;5016084;28;20048;-87
2021/01/04 02:29:12;;;;;;;4.18;2.90;;;;;;;;;;5033763;28;20368;-87
2021/01/04 02:31:40;;;;;;;2.10;1.80;;;;;;;;;;5033748;28;20083;-87
2021/01/04 02:34:09;;;;;;;2.85;2.33;;;;;;;;;;5015006;28;20323;-87
2021/01/04 02:36:37;;;;;;;3.05;2.30;;;;;;;;;;5013466;28;20084;-87
2021/01/04 02:39:09;;;;;;;3.08;2.78;;;;;;;;;;5032678;28;20068;-87
2021/01/04 02:41:43;;;;;;;2.97;1.80;;;;;;;;;;5032632;28;20033;-87
2021/01/04 02:44:09;;;;;;;2.88;1.77;;;;;;;;;;5032043;28;20079;-87
2021/01/04 02:46:38;;;;;;;3.85;1.98;;;;;;;;;;5014925;28;20022;-87
2021/01/04 02:49:04;;;;;;;1.77;1.52;;;;;;;;;;5015007;28;20041;-87
2021/01/04 02:51:35;;;;;;;1.73;1.63;;;;;;;;;;5032923;28;20029;-87
2021/01/04 02:54:05;;;;;;;1.60;1.50;;;;;;;;;;5010752;28;20057;-87
2021/01/04 02:56:31;;;;;;;1.73;1.35;;;;;;;;;;5011137;28;20405;-87
2021/01/04 02:59:04;;;;;;;2.20;1.63;;;;;;;;;;5010988;28;20034;-87
2021/01/04 03:01:50;;;;;;;1.58;1.45;;;;;;;;;;5012746;28;20091;-87
2021/01/04 03:04:17;;;;;;;2.08;1.35;;;;;;;;;;5011827;28;20028;-87
2021/01/04 03:06:43;;;;;;;1.80;1.42;;;;;;;;;;5009797;28;20429;-87
2021/01/04 03:09:10;;;;;;;1.63;1.52;;;;;;;;;;5011389;28;20100;-87
2021/01/04 03:11:38;;;;;;;2.25;2.00;;;;;;;;;;5010968;28;20489;-87
2021/01/04 03:14:04;;;;;;;1.77;1.67;;;;;;;;;;5010425;28;20497;-87
2021/01/04 03:16:42;;;;;;;1.80;1.65;;;;;;;;;;5011918;28;20037;-87
2021/01/04 03:19:11;;;;;;;1.48;1.30;;;;;;;;;;5011937;28;20403;-86
2021/01/04 03:21:38;;;;;;;1.27;1.17;;;;;;;;;;5012221;28;20022;-87
2021/01/04 03:24:06;;;;;;;1.95;1.38;;;;;;;;;;5010256;28;20026;-87
2021/01/04 03:26:39;;;;;;;1.80;1.48;;;;;;;;;;5012305;28;20141;-86
2021/01/04 03:29:05;;;;;;;1.87;1.20;;;;;;;;;;5010511;28;20164;-87
2021/01/04 03:31:31;;;;;;;1.65;1.40;;;;;;;;;;5010805;28;20025;-87
2021/01/04 03:33:57;;;;;;;1.98;1.52;;;;;;;;;;5011624;28;20500;-86
2021/01/04 03:36:23;;;;;;;1.13;1.02;;;;;;;;;;5009363;28;20038;-87
2021/01/04 03:38:49;;;;;;;1.65;1.15;;;;;;;;;;5013362;28;20063;-87
2021/01/04 03:41:18;;;;;;;1.00;1.00;;;;;;;;;;5014081;28;20080;-86
2021/01/04 03:43:44;;;;;;;1.10;0.93;;;;;;;;;;5012948;28;20060;-87
2021/01/04 03:46:10;;;;;;;1.42;1.10;;;;;;;;;;5031701;28;20022;-87
2021/01/04 03:48:37;;;;;;;1.55;1.15;;;;;;;;;;5013274;28;20055;-87
2021/01/04 03:51:03;;;;;;;2.33;1.38;;;;;;;;;;5013791;28;20040;-87
2021/01/04 03:53:29;;;;;;;1.30;1.00;;;;;;;;;;5012486;28;20045;-87
2021/01/04 03:55:56;;;;;;;2.08;1.00;;;;;;;;;;5013365;28;20080;-87
2021/01/04 03:58:22;;;;;;;1.50;1.30;;;;;;;;;;5030928;28;20048;-87
2021/01/04 04:00:48;;;;;;;1.50;1.10;;;;;;;;;;5030841;28;20017;-87
2021/01/04 04:03:14;;;;;;;1.55;1.00;;;;;;;;;;5013037;28;20504;-87
2021/01/04 04:05:40;;;;;;;1.90;1.02;;;;;;;;;;5012077;28;20099;-87
2021/01/04 04:08:06;;;;;;;1.08;0.82;;;;;;;;;;5031058;28;20036;-87
2021/01/04 04:10:32;;;;;;;1.15;0.95;;;;;;;;;;5013798;28;20424;-87
2021/01/04 04:12:58;;;;;;;0.70;0.70;;;;;;;;;;5030560;28;20036;-87
2021/01/04 04:15:25;;;;;;;1.15;1.05;;;;;;;;;;5013155;28;20627;-87
2021/01/04 04:17:51;;;;;;;0.80;0.77;;;;;;;;;;5013308;28;20032;-87
2021/01/04 04:20:19;;;;;;;1.20;1.10;;;;;;;;;;5013241;28;20076;-86
2021/01/04 04:22:46;;;;;;;2.40;0.80;;;;;;;;;;5030352;28;20026;-87
2021/01/04 04:25:13;;;;;;;1.60;1.17;;;;;;;;;;5030776;28;20021;-87
2021/01/04 04:27:39;;;;;;;0.98;0.98;;;;;;;;;;5012700;28;20546;-87
2021/01/04 04:30:08;;;;;;;1.20;1.17;;;;;;;;;;5013482;28;20493;-87
2021/01/04 04:32:34;;;;;;;1.35;1.30;;;;;;;;;;5029668;28;20021;-87
2021/01/04 04:35:00;;;;;;;0.95;0.93;;;;;;;;;;5029672;28;20492;-87
2021/01/04 04:37:26;;;;;;;1.40;1.25;;;;;;;;;;5028115;28;20626;-87
2021/01/04 04:39:52;;;;;;;1.38;1.27;;;;;;;;;;5009670;28;20029;-87
2021/01/04 04:42:19;;;;;;;1.20;1.13;;;;;;;;;;5009619;28;20051;-87
2021/01/04 04:44:45;;;;;;;1.95;1.35;;;;;;;;;;5010333;28;20057;-86
2021/01/04 04:47:18;;;;;;;1.77;1.67;;;;;;;;;;5009529;28;20022;-87
2021/01/04 04:50:03;;;;;;;1.98;1.63;;;;;;;;;;5009726;28;20026;-88
2021/01/04 04:52:38;;;;;;;1.05;1.00;;;;;;;;;;5010979;28;20030;-87
2021/01/04 04:55:13;;;;;;;2.00;1.55;;;;;;;;;;5025980;28;20124;-86
2021/01/04 04:57:41;;;;;;;1.35;1.10;;;;;;;;;;5012988;28;20128;-87
2021/01/04 05:00:11;;;;;;;1.48;1.38;;;;;;;;;;5032059;28;20031;-87
2021/01/04 05:02:43;;;;;;;1.27;1.17;;;;;;;;;;5016447;28;20056;-87
2021/01/04 05:05:09;;;;;;;2.50;1.30;;;;;;;;;;5033229;28;20524;-87
2021/01/04 05:08:00;;;;;;;1.13;1.10;;;;;;;;;;5016843;28;20033;-87
2021/01/04 05:10:28;;;;;;;1.10;1.00;;;;;;;;;;5024460;28;20108;-87
2021/01/04 05:13:13;;;;;;;1.98;1.20;;;;;;;;;;5016078;28;20033;-87
2021/01/04 05:15:39;;;;;;;1.80;1.23;;;;;;;;;;5016081;28;20030;-87
2021/01/04 05:18:05;;;;;;;1.40;1.27;;;;;;;;;;5034161;28;20029;-87
2021/01/04 05:20:49;;;;;;;2.63;1.77;;;;;;;;;;5016713;28;20025;-87
2021/01/04 05:23:21;;;;;;;1.60;1.52;;;;;;;;;;5033158;28;20053;-87
2021/01/04 05:26:26;;;;;;;1.83;1.42;;;;;;;;;;5033935;28;20025;-87
2021/01/04 05:28:52;;;;;;;;;;;;;;;;;;4953793;29;20114;-87
2021/01/04 05:31:36;;;;;;;1.42;1.23;;;;;;;;;;4953555;29;20022;-87
2021/01/04 05:34:13;;;;;;;1.70;1.60;;;;;;;;;;4991709;28;20381;-87
2021/01/04 05:37:08;;;;;;;1.60;1.50;;;;;;;;;;5014768;28;20436;-86
2021/01/04 05:39:47;;;;;;;1.67;1.58;;;;;;;;;;4996450;28;20033;-87
2021/01/04 05:42:34;;;;;;;2.15;1.88;;;;;;;;;;5014312;28;20087;-87
2021/01/04 05:45:00;;;;;;;1.45;1.35;;;;;;;;;;5013090;28;20510;-86
2021/01/04 05:47:33;;;;;;;3.05;1.98;;;;;;;;;;4996147;28;20504;-87
2021/01/04 05:49:59;;;;;;;1.63;1.52;;;;;;;;;;4996188;28;20025;-87
2021/01/04 05:52:25;;;;;;;1.38;1.27;;;;;;;;;;4995994;28;20112;-87
2021/01/04 05:54:52;;;;;;;1.85;1.25;;;;;;;;;;5013208;28;20042;-87
2021/01/04 05:57:18;;;;;;;1.70;1.30;;;;;;;;;;5014295;28;20551;-87
2021/01/04 05:59:46;;;;;;;1.95;1.63;;;;;;;;;;5013728;28;20475;-86
2021/01/04 06:02:12;;;;;;;1.63;1.48;;;;;;;;;;4996443;28;20118;-87
2021/01/04 06:04:38;;;;;;;1.02;1.02;;;;;;;;;;4994575;28;20022;-87
2021/01/04 06:07:05;;;;;;;0.98;0.80;;;;;;;;;;4995877;28;20117;-87
2021/01/04 06:09:31;;;;;;;2.00;1.63;;;;;;;;;;4996019;28;20026;-87
2021/01/04 06:11:58;;;;;;;1.55;1.08;;;;;;;;;;4995275;28;20040;-87
2021/01/04 06:14:26;;;;;;;1.02;0.80;;;;;;;;;;5013037;28;20026;-86
2021/01/04 06:17:02;;;;;;;1.77;1.20;;;;;;;;;;4994962;28;20017;-87
2021/01/04 06:19:30;;;;;;;1.95;1.35;;;;;;;;;;4995273;28;20026;-87
2021/01/04 06:22:18;;;;;;;1.33;1.23;;;;;;;;;;5013050;28;20037;-87
2021/01/04 06:24:46;;;;;;;1.58;1.48;;;;;;;;;;5012600;28;20022;-87
2021/01/04 06:27:13;;;;;;;1.30;1.20;;;;;;;;;;5012869;28;20336;-87
2021/01/04 06:29:39;;;;;;;1.13;1.02;;;;;;;;;;4995794;28;20256;-87
2021/01/04 06:32:06;;;;;;;1.38;1.25;;;;;;;;;;5013470;28;20037;-87
2021/01/04 06:34:37;;;;;;;1.67;1.55;;;;;;;;;;5012197;28;20029;-87
2021/01/04 06:37:24;;;;;;;1.67;1.58;;;;;;;;;;4995714;28;20034;-87
2021/01/04 06:40:01;;;;;;;1.55;1.42;;;;;;;;;;4995249;28;20045;-87
2021/01/04 06:42:34;;;;;;;1.77;1.45;;;;;;;;;;5012787;28;20022;-87
2021/01/04 06:45:00;;;;;;;1.10;0.95;;;;;;;;;;4994811;28;20404;-87
2021/01/04 06:47:42;;;;;;;1.25;1.15;;;;;;;;;;5000006;28;20037;-87
2021/01/04 06:50:21;;;;;;;2.13;1.20;;;;;;;;;;5026185;28;20109;-87
2021/01/04 06:52:47;;;;;;;5.15;2.30;;;;;;;;;;5002186;28;20569;-87
2021/01/04 06:55:17;;;;;;;1.85;1.70;;;;;;;;;;5012565;28;20081;-87
2021/01/04 06:57:46;;;;;;;2.72;2.25;;;;;;;;;;5011581;28;20397;-86
2021/01/04 07:00:24;;;;;;;2.38;1.95;;;;;;;;;;4994130;28;20030;-88
2021/01/04 07:03:09;;;;;;;2.95;2.45;;;;;;;;;;4995674;28;20050;-87
2021/01/04 07:05:38;;;;;;;3.03;2.60;;;;;;;;;;4998491;28;20021;-89
2021/01/04 07:08:10;;;;;;;4.00;2.63;;;;;;;;;;5008886;28;20033;-88
2021/01/04 07:10:55;;;;;;;3.38;2.58;;;;;;;;;;5007377;28;20057;-89
2021/01/04 07:13:24;;;;;;;4.50;2.85;;;;;;;;;;5009819;28;20489;-88
2021/01/04 07:16:02;;;;;;;4.65;2.67;;;;;;;;;;4989931;28;20026;-87
2021/01/04 07:18:45;;;;;;;4.05;2.78;;;;;;;;;;4996391;28;20112;-87
2021/01/04 07:21:22;;;;;;;4.07;3.20;;;;;;;;;;4995075;28;20018;-88
2021/01/04 07:24:06;;;;;;;2.22;2.03;;;;;;;;;;5005055;28;20056;-87
2021/01/04 07:26:37;;;;;;;2.80;2.30;;;;;;;;;;4979531;28;20045;-88
2021/01/04 07:29:03;;;;;;;4.85;3.10;;;;;;;;;;4991920;28;20061;-90
2021/01/04 07:31:42;;;;;;;3.22;2.05;;;;;;;;;;5004856;28;20084;-85
2021/01/04 07:34:17;;;;;;;3.15;2.67;;;;;;;;;;4997273;28;20030;-86
2021/01/04 07:36:50;;;;;;;3.00;2.22;;;;;;;;;;4984360;28;20037;-84
2021/01/04 07:39:28;;;;;;;3.03;1.77;;;;;;;;;;4982742;28;20038;-84
2021/01/04 07:42:13;;;;;;;3.45;2.35;;;;;;;;;;4993740;28;20029;-85
2021/01/04 07:44:42;;;;;;;3.42;1.70;;;;;;;;;;4992465;28;20042;-83
2021/01/04 07:47:27;;;;;;;14.10;2.35;;;;;;;;;;4993269;28;20097;-84
2021/01/04 07:50:02;;;;;;;2.08;1.50;;;;;;;;;;4992928;28;20025;-85
2021/01/04 07:52:46;;;;;;;1.88;1.55;;;;;;;;;;4981724;28;20026;-85
2021/01/04 07:55:18;;;;;;;3.75;2.08;;;;;;;;;;5019340;28;20046;-83
2021/01/04 07:57:54;;;;;;;3.80;1.45;;;;;;;;;;5023306;28;20031;-86
2021/01/04 08:00:38;;;;;;;3.00;1.58;;;;;;;;;;5011936;28;20095;-81
2021/01/04 08:03:24;;;;;;;1.95;1.73;;;;;;;;;;5023986;28;20021;-83
2021/01/04 08:05:56;;;;;;;2.15;1.92;;;;;;;;;;5014358;28;20488;-83
2021/01/04 08:08:41;;;;;;;2.00;1.88;;;;;;;;;;5020569;28;20408;-82
2021/01/04 08:11:19;;;;;;;2.03;1.90;;;;;;;;;;5017436;28;20061;-82
2021/01/04 08:13:54;;;;;;;2.80;1.60;;;;;;;;;;5006148;28;20025;-83
2021/01/04 08:16:27;;;;;;;5.38;2.15;;;;;;;;;;5002370;28;20042;-82
2021/01/04 08:18:55;;;;;;;4.75;2.40;;;;;;;;;;5013293;28;20053;-83
2021/01/04 08:21:36;;;;;;;4.38;2.35;;;;;;;;;;5018613;28;20393;-82
2021/01/04 08:24:05;;;;;;;5.50;1.88;;;;;;;;;;5001920;28;20435;-82
2021/01/04 08:26:34;;;;;;;7.85;1.95;;;;;;;;;;4993459;28;20168;-81
2021/01/04 08:29:03;;;;;;;4.03;1.92;;;;;;;;;;5018069;28;20157;-81
2021/01/04 08:31:29;;;;;;;3.25;1.70;;;;;;;;;;4998342;28;20443;-82
2021/01/04 08:33:59;;;;;;;7.65;1.80;;;;;;;;;;5019052;28;20025;-84
2021/01/04 08:36:43;;;;;;;3.58;2.47;;;;;;;;;;5014278;28;20072;-83
2021/01/04 08:39:09;;;;;;;;;;;;;;;;;;4999854;28;20500;-84
2021/01/04 08:41:35;;;;;;;3.80;2.10;;;;;;;;;;4996590;28;19913;-83
2021/01/04 08:44:11;;;;;;;2.33;1.80;;;;;;;;;;5015203;28;20037;-82
2021/01/04 08:46:38;;;;;;;1.67;1.58;;;;;;;;;;4998305;28;21245;-82
2021/01/04 08:49:18;;;;;;;4.78;2.75;;;;;;;;;;5017454;28;20033;-83
2021/01/04 08:51:45;;;;;;;3.15;2.10;;;;;;;;;;5000380;28;20432;-84
2021/01/04 08:54:11;;;;;;;2.42;2.22;;;;;;;;;;5016027;28;20053;-83
2021/01/04 08:56:39;;;;;;;3.67;2.47;;;;;;;;;;4997846;28;20065;-84
2021/01/04 08:59:30;;;;;;;2.25;1.88;;;;;;;;;;5001122;28;20092;-83
2021/01/04 09:02:01;;;;;;;4.10;2.58;;;;;;;;;;5013645;28;20014;-83
2021/01/04 09:04:45;;;;;;;2.95;2.08;;;;;;;;;;5016747;28;20048;-84
2021/01/04 09:07:11;;;;;;;;;;;;;;;;;;5017043;28;20079;-84
2021/01/04 09:09:39;;;;;;;4.25;2.80;;;;;;;;;;5017664;28;20470;-84
2021/01/04 09:12:08;;;;;;;6.25;3.20;;;;;;;;;;4998165;28;20448;-84
2021/01/04 09:14:51;;;;;;;2.92;2.65;;;;;;;;;;5016874;28;20033;-85
2021/01/04 09:17:24;;;;;;;3.70;3.28;;;;;;;;;;5013999;28;20057;-83
2021/01/04 09:19:51;;;;;;;3.55;2.80;;;;;;;;;;5017650;28;20079;-83
2021/01/04 09:22:22;;;;;;;3.53;3.22;;;;;;;;;;5003130;28;20029;-84
2021/01/04 09:24:48;;;;;;;2.85;2.45;;;;;;;;;;5014298;28;20060;-84
2021/01/04 09:27:34;;;;;;;3.17;2.55;;;;;;;;;;5014682;28;20048;-87
2021/01/04 09:30:04;;;;;;;3.50;3.13;;;;;;;;;;5014400;28;20037;-84
2021/01/04 09:32:32;;;;;;;3.88;2.42;;;;;;;;;;4991881;28;20026;-85
2021/01/04 09:34:59;;;;;;;3.17;2.10;;;;;;;;;;5009239;28;20044;-84
2021/01/04 09:37:29;;;;;;;3.13;2.65;;;;;;;;;;5012772;28;20485;-87
2021/01/04 09:40:00;;;;;;;5.40;3.08;;;;;;;;;;5002405;28;20587;-87
2021/01/04 09:42:27;;;;;;;4.10;3.42;;;;;;;;;;4998429;28;20392;-85
2021/01/04 09:44:54;;;;;;;3.15;2.30;;;;;;;;;;5018655;28;20128;-85
2021/01/04 09:47:27;;;;;;;5.25;4.53;;;;;;;;;;5000361;28;20021;-86
2021/01/04 09:49:56;;;;;;;2.38;2.17;;;;;;;;;;5002676;28;20088;-86
2021/01/04 09:52:25;;;;;;;5.88;3.03;;;;;;;;;;5001563;28;20515;-87
2021/01/04 09:54:53;;;;;;;3.13;2.85;;;;;;;;;;5020771;28;20048;-84
2021/01/04 09:57:21;;;;;;;4.28;3.38;;;;;;;;;;4997775;28;20516;-83
2021/01/04 09:59:47;;;;;;;4.70;2.97;;;;;;;;;;5011754;28;20041;-84
2021/01/04 10:02:24;;;;;;;3.88;2.80;;;;;;;;;;4999126;28;20029;-84
2021/01/04 10:04:51;;;;;;;3.38;2.83;;;;;;;;;;5013269;28;20053;-84
2021/01/04 10:07:22;;;;;;;5.65;2.65;;;;;;;;;;5000395;28;20040;-83
2021/01/04 10:09:50;;;;;;;5.43;3.83;;;;;;;;;;4999778;28;20037;-85
2021/01/04 10:12:18;;;;;;;4.35;2.80;;;;;;;;;;5018080;28;20057;-86
2021/01/04 10:14:47;;;;;;;6.50;4.07;;;;;;;;;;5003689;28;21275;-87
2021/01/04 10:17:13;;;;;;;6.93;2.70;;;;;;;;;;5002677;28;20057;-85
2021/01/04 10:19:46;;;;;;;3.20;2.72;;;;;;;;;;5001937;28;20034;-85
2021/01/04 10:22:23;;;;;;;3.45;3.15;;;;;;;;;;5006884;28;21452;-87
2021/01/04 10:24:49;;;;;;;2.95;2.47;;;;;;;;;;5003588;28;20029;-90
2021/01/04 10:27:17;;;;;;;4.50;3.13;;;;;;;;;;5002471;28;20651;-87
2021/01/04 10:29:47;;;;;;;3.13;2.70;;;;;;;;;;5002710;28;20057;-87
2021/01/04 10:32:22;;;;;;;5.57;2.65;;;;;;;;;;5001263;28;20026;-89
2021/01/04 10:34:49;;;;;;;5.10;3.17;;;;;;;;;;5000943;28;20496;-84
2021/01/04 10:37:24;;;;;;;2.95;2.65;;;;;;;;;;5015494;28;20086;-84
2021/01/04 10:39:50;;;;;;;4.07;2.85;;;;;;;;;;5019733;28;20026;-85
2021/01/04 10:42:21;;;;;;;2.88;2.40;;;;;;;;;;5002445;28;20029;-87
2021/01/04 10:44:48;;;;;;;5.25;2.78;;;;;;;;;;4998402;28;20104;-85
2021/01/04 10:47:22;;;;;;;2.95;2.53;;;;;;;;;;5000500;28;20026;-87
2021/01/04 10:49:48;;;;;;;4.10;2.67;;;;;;;;;;5022142;28;20033;-86
2021/01/04 10:52:22;;;;;;;3.22;2.60;;;;;;;;;;5001174;28;20037;-86
2021/01/04 10:54:48;;;;;;;;;;;;;;;;;;5000979;28;20134;-83
2021/01/04 10:57:23;;;;;;;7.03;2.45;;;;;;;;;;4998161;28;20068;-82
2021/01/04 10:59:58;;;;;;;3.47;2.63;;;;;;;;;;5019597;28;20032;-84
2021/01/04 11:02:24;;;;;;;2.33;1.95;;;;;;;;;;4999667;28;20025;-85
2021/01/04 11:04:53;;;;;;;4.30;3.35;;;;;;;;;;5000155;28;20041;-86
2021/01/04 11:07:21;;;;;;;5.57;2.38;;;;;;;;;;5018474;28;20397;-87
2021/01/04 11:09:47;;;;;;;6.75;4.13;;;;;;;;;;5002903;28;20083;-87
2021/01/04 11:12:16;;;;;;;2.45;2.00;;;;;;;;;;5002477;28;20116;-86
2021/01/04 11:14:53;;;;;;;4.35;2.45;;;;;;;;;;5018472;28;20498;-85
2021/01/04 11:17:20;;;;;;;2.88;2.42;;;;;;;;;;5015492;28;20030;-87
2021/01/04 11:19:47;;;;;;;4.10;2.08;;;;;;;;;;5000931;28;20099;-86
2021/01/04 11:22:19;;;;;;;2.92;1.75;;;;;;;;;;4995546;28;20029;-86
2021/01/04 11:24:45;;;;;;;4.53;2.53;;;;;;;;;;5003544;28;20013;-85
2021/01/04 11:27:11;;;;;;;5.15;2.25;;;;;;;;;;4995809;28;20056;-86
2021/01/04 11:29:38;;;;;;;4.80;2.25;;;;;;;;;;4999953;28;20034;-86
2021/01/04 11:32:05;;;;;;;6.45;2.22;;;;;;;;;;5018028;28;20029;-88
2021/01/04 11:34:31;;;;;;;4.03;2.15;;;;;;;;;;5001634;28;20489;-89
2021/01/04 11:36:57;;;;;;;2.22;2.03;;;;;;;;;;5018679;28;20108;-88
2021/01/04 11:39:23;;;;;;;3.30;2.10;;;;;;;;;;5005147;28;20033;-90
2021/01/04 11:41:50;;;;;;;2.47;2.10;;;;;;;;;;5003549;28;20026;-90
2021/01/04 11:44:16;;;;;;;2.33;2.00;;;;;;;;;;5004998;28;20030;-89
2021/01/04 11:46:42;;;;;;;2.45;2.22;;;;;;;;;;5002280;28;20516;-90
2021/01/04 11:49:08;;;;;;;3.47;2.72;;;;;;;;;;5003845;28;20242;-90
2021/01/04 11:51:34;;;;;;;3.55;1.65;;;;;;;;;;5024411;28;20029;-90
2021/01/04 11:54:00;;;;;;;2.03;1.83;;;;;;;;;;5001317;28;20132;-89
2021/01/04 11:56:30;;;;;;;2.05;1.52;;;;;;;;;;5019294;28;20045;-89
2021/01/04 11:58:56;;;;;;;3.40;2.08;;;;;;;;;;5006195;28;20037;-89
2021/01/04 12:01:22;;;;;;;2.72;2.28;;;;;;;;;;5004520;28;20022;-89
2021/01/04 12:03:48;;;;;;;2.60;1.83;;;;;;;;;;5000754;28;20092;-89
2021/01/04 12:06:14;;;;;;;4.82;2.33;;;;;;;;;;4999392;28;20030;-88
2021/01/04 12:08:40;;;;;;;3.50;2.88;;;;;;;;;;5021597;28;20032;-88
2021/01/04 12:11:07;;;;;;;4.78;2.70;;;;;;;;;;5001139;28;20041;-88
2021/01/04 12:13:33;;;;;;;5.22;3.30;;;;;;;;;;5022551;28;20115;-89
2021/01/04 12:15:59;;;;;;;3.50;2.75;;;;;;;;;;5004679;28;20448;-88
2021/01/04 12:18:25;;;;;;;3.00;2.28;;;;;;;;;;5002879;28;20111;-89
2021/01/04 12:20:53;;;;;;;3.42;2.08;;;;;;;;;;5000312;28;20026;-88
2021/01/04 12:23:19;;;;;;;2.65;2.30;;;;;;;;;;5001963;28;20022;-89
2021/01/04 12:25:45;;;;;;;3.28;2.97;;;;;;;;;;5003395;28;20118;-88
2021/01/04 12:28:11;;;;;;;3.25;2.58;;;;;;;;;;4997830;28;20029;-87
2021/01/04 12:30:40;;;;;;;2.58;1.65;;;;;;;;;;4998840;28;20433;-88
2021/01/04 12:33:06;;;;;;;4.05;2.60;;;;;;;;;;4998160;28;20434;-87
2021/01/04 12:35:33;;;;;;;2.03;1.92;;;;;;;;;;5022503;28;20109;-89
2021/01/04 12:37:59;;;;;;;3.38;1.92;;;;;;;;;;4999689;28;20571;-91
2021/01/04 12:40:29;;;;;;;2.95;2.15;;;;;;;;;;5003715;28;20036;-88
2021/01/04 12:42:55;;;;;;;1.90;1.58;;;;;;;;;;5002668;28;20022;-91
2021/01/04 12:45:21;;;;;;;2.05;1.60;;;;;;;;;;4997532;28;20021;-90
2021/01/04 12:47:48;;;;;;;3.97;2.10;;;;;;;;;;4995600;28;20476;-89
2021/01/04 12:50:14;;;;;;;5.53;1.83;;;;;;;;;;5022858;28;20037;-90
2021/01/04 12:52:41;;;;;;;2.63;1.60;;;;;;;;;;5003505;28;20057;-90
2021/01/04 12:55:07;;;;;;;1.58;1.48;;;;;;;;;;5004370;28;20057;-87
2021/01/04 12:57:33;;;;;;;4.78;2.10;;;;;;;;;;5019536;28;20021;-89
2021/01/04 13:00:00;;;;;;;2.33;1.50;;;;;;;;;;5006759;28;20041;-90
2021/01/04 13:02:26;;;;;;;2.33;1.50;;;;;;;;;;5017460;28;20014;-86
2021/01/04 13:04:52;;;;;;;1.65;1.23;;;;;;;;;;5000090;28;20044;-88
2021/01/04 13:07:18;;;;;;;2.90;1.30;;;;;;;;;;5013171;28;20021;-85
2021/01/04 13:09:44;;;;;;;3.00;2.22;;;;;;;;;;4995048;28;20087;-87
2021/01/04 13:12:11;;;;;;;2.97;1.48;;;;;;;;;;4996844;28;20029;-84
2021/01/04 13:14:37;;;;;;;1.50;1.35;;;;;;;;;;4996055;28;20038;-86
2021/01/04 13:17:03;;;;;;;3.03;1.50;;;;;;;;;;4991258;28;20030;-85
2021/01/04 13:19:30;;;;;;;2.25;1.50;;;;;;;;;;4994528;28;20120;-85
2021/01/04 13:22:01;;;;;;;1.67;1.13;;;;;;;;;;5000029;28;20022;-86
2021/01/04 13:24:27;;;;;;;1.60;1.42;;;;;;;;;;5004923;28;20022;-90
2021/01/04 13:26:54;;;;;;;2.33;1.55;;;;;;;;;;5017990;28;20122;-88
2021/01/04 13:29:26;;;;;;;1.80;1.20;;;;;;;;;;5004943;28;20036;-87
2021/01/04 13:31:53;;;;;;;4.32;1.40;;;;;;;;;;5021201;28;20025;-85
2021/01/04 13:34:20;;;;;;;1.95;1.30;;;;;;;;;;5018258;28;20101;-84
2021/01/04 13:36:47;;;;;;;3.42;2.28;;;;;;;;;;5020127;28;20037;-86
2021/01/04 13:39:13;;;;;;;1.33;1.20;;;;;;;;;;5001975;28;20121;-92
2021/01/04 13:41:39;;;;;;;1.45;1.33;;;;;;;;;;4998868;28;20021;-89
2021/01/04 13:44:05;;;;;;;2.20;2.03;;;;;;;;;;5020928;28;20105;-86
2021/01/04 13:46:32;;;;;;;3.38;2.10;;;;;;;;;;5017660;28;20036;-87
2021/01/04 13:48:58;;;;;;;2.28;1.17;;;;;;;;;;5022824;28;20029;-84
2021/01/04 13:51:25;;;;;;;3.40;1.55;;;;;;;;;;5006505;28;20098;-86
2021/01/04 13:53:51;;;;;;;1.95;1.35;;;;;;;;;;5014494;28;20424;-86
2021/01/04 13:56:17;;;;;;;3.42;1.95;;;;;;;;;;5009492;28;20034;-86
2021/01/04 13:58:46;;;;;;;2.50;1.23;;;;;;;;;;5000115;28;20029;-84
2021/01/04 14:01:13;;;;;;;1.60;1.42;;;;;;;;;;5004014;28;20054;-86
2021/01/04 14:03:39;;;;;;;2.15;1.40;;;;;;;;;;5004439;28;20101;-85
2021/01/04 14:06:06;;;;;;;2.50;2.00;;;;;;;;;;4998097;28;20127;-85
2021/01/04 14:08:32;;;;;;;1.60;1.50;;;;;;;;;;5000844;28;20148;-85
2021/01/04 14:10:59;;;;;;;1.77;1.67;;;;;;;;;;5005872;28;20054;-82
2021/01/04 14:13:25;;;;;;;2.00;1.80;;;;;;;;;;5017832;28;20056;-85
2021/01/04 14:15:52;;;;;;;4.18;1.90;;;;;;;;;;5018564;28;20063;-87
2021/01/04 14:18:18;;;;;;;3.40;1.83;;;;;;;;;;5000390;28;20017;-85
2021/01/04 14:20:45;;;;;;;4.93;1.40;;;;;;;;;;5018926;28;20083;-87
2021/01/04 14:23:13;;;;;;;2.30;1.85;;;;;;;;;;5005051;28;20025;-86
2021/01/04 14:25:39;;;;;;;1.33;1.23;;;;;;;;;;5003720;28;20033;-85
2021/01/04 14:28:05;;;;;;;3.67;1.40;;;;;;;;;;5005652;28;20110;-87
2021/01/04 14:30:31;;;;;;;2.35;1.08;;;;;;;;;;5008000;28;20685;-84
2021/01/04 14:32:57;;;;;;;1.65;1.45;;;;;;;;;;5004480;28;20025;-87
2021/01/04 14:35:23;;;;;;;7.00;1.77;;;;;;;;;;5007657;28;20523;-88
2021/01/04 14:37:49;;;;;;;7.57;1.42;;;;;;;;;;4999827;28;20088;-87
2021/01/04 14:40:16;;;;;;;1.42;1.33;;;;;;;;;;5023259;28;20025;-90
2021/01/04 14:42:42;;;;;;;3.78;1.95;;;;;;;;;;5024367;28;20033;-87
2021/01/04 14:45:09;;;;;;;2.28;1.15;;;;;;;;;;5022581;28;20040;-88
2021/01/04 14:47:36;;;;;;;2.38;1.50;;;;;;;;;;5002612;28;20061;-86
2021/01/04 14:50:03;;;;;;;3.42;1.48;;;;;;;;;;5006042;28;20060;-84
2021/01/04 14:52:29;;;;;;;3.80;2.10;;;;;;;;;;5017069;28;20034;-84
2021/01/04 14:54:55;;;;;;;1.98;1.55;;;;;;;;;;5002708;28;20520;-85
2021/01/04 14:57:22;;;;;;;2.97;1.98;;;;;;;;;;5001034;28;20030;-86
2021/01/04 14:59:48;;;;;;;1.60;1.02;;;;;;;;;;5002261;28;20484;-87
2021/01/04 15:02:16;;;;;;;1.80;1.25;;;;;;;;;;5005219;28;20392;-85
2021/01/04 15:04:42;;;;;;;1.67;1.58;;;;;;;;;;5021159;28;20808;-87
2021/01/04 15:07:08;;;;;;;3.17;2.55;;;;;;;;;;5019949;28;20662;-89